createdAt,value
2023-03-13T00:00:01.059Z,9.98
2023-03-13T00:05:03.780Z,12.55
2023-03-13T00:10:06.661Z,12.18
2023-03-13T00:15:08.983Z,15.82
2023-03-13T00:20:11.432Z,17.27
2023-03-13T00:25:13.134Z,10.43
2023-03-13T00:30:14.973Z,9.50
2023-03-13T00:35:16.934Z,13.45
2023-03-13T00:40:20.251Z,14.00
2023-03-13T00:45:22.121Z,10.48
2023-03-13T00:50:23.766Z,18.27
2023-03-13T00:55:25.389Z,11.13
2023-03-13T01:00:27.041Z,12.45
2023-03-13T01:05:28.783Z,9.43
2023-03-13T01:10:30.428Z,14.35
2023-03-13T01:15:35.087Z,11.65
2023-03-13T01:20:38.567Z,10.27
2023-03-13T01:25:40.666Z,13.93
2023-03-13T01:30:42.671Z,13.98
2023-03-13T01:35:45.898Z,10.10
2023-03-13T01:40:49.535Z,11.32
2023-03-13T01:45:54.719Z,11.68
2023-03-13T01:51:01.721Z,12.88
2023-03-13T01:56:08.221Z,12.57
2023-03-13T02:01:10.967Z,11.40
2023-03-13T02:06:13.125Z,13.32
2023-03-13T02:11:33.051Z,9.23
2023-03-13T02:16:35.782Z,11.30
2023-03-13T02:21:49.389Z,14.23
2023-03-13T02:26:51.121Z,10.15
2023-03-13T02:31:53.856Z,9.90
2023-03-13T02:36:56.503Z,21.35
2023-03-13T02:42:00.211Z,16.48
2023-03-13T02:47:02.415Z,12.75
2023-03-13T02:52:20.710Z,9.68
2023-03-13T02:57:22.431Z,14.73
2023-03-13T03:02:24.449Z,13.80
2023-03-13T03:07:27.948Z,16.00
2023-03-13T03:12:29.719Z,11.77
2023-03-13T03:17:31.514Z,10.75
2023-03-13T03:22:34.678Z,12.68
2023-03-13T03:27:40.156Z,13.07
2023-03-13T03:37:45.287Z,9.45
2023-03-13T03:42:47.873Z,22.02
2023-03-13T03:47:49.605Z,14.35
2023-03-13T03:52:51.456Z,8.93
2023-03-13T03:57:53.925Z,13.25
2023-03-13T04:03:13.862Z,12.10
2023-03-13T04:08:16.031Z,12.82
2023-03-13T04:13:17.791Z,15.43
2023-03-13T04:18:20.828Z,8.07
2023-03-13T04:23:22.778Z,16.15
2023-03-13T04:28:26.918Z,10.30
2023-03-13T04:33:29.544Z,16.50
2023-03-13T04:38:49.513Z,13.93
2023-03-13T04:44:10.032Z,19.65
2023-03-13T04:49:11.973Z,11.80
2023-03-13T04:54:14.097Z,16.88
2023-03-13T04:59:38.475Z,19.92
2023-03-13T05:05:03.785Z,11.57
2023-03-13T05:10:23.951Z,8.98
2023-03-13T05:15:44.390Z,12.88
2023-03-13T05:20:59.072Z,14.50
2023-03-13T05:26:16.117Z,13.60
2023-03-13T05:31:38.337Z,9.63
2023-03-13T05:36:53.711Z,8.43
2023-03-13T05:42:14.032Z,15.25
2023-03-13T05:47:28.438Z,13.68
2023-03-13T05:53:02.438Z,15.82
2023-03-13T05:58:13.994Z,11.15
2023-03-13T06:03:34.685Z,9.38
2023-03-13T06:08:36.680Z,9.93
2023-03-13T06:13:38.414Z,9.60
2023-03-13T06:19:02.966Z,8.80
2023-03-13T06:24:05.118Z,15.55
2023-03-13T06:29:06.793Z,9.55
2023-03-13T06:34:11.559Z,18.42
2023-03-13T06:39:13.423Z,8.07
2023-03-13T06:44:15.286Z,14.18
2023-03-13T06:49:16.972Z,12.60
2023-03-13T06:54:18.714Z,8.70
2023-03-13T06:59:20.418Z,9.93
2023-03-13T07:04:22.146Z,5.72
2023-03-13T07:09:24.025Z,8.38
2023-03-13T07:14:25.741Z,8.88
2023-03-13T07:19:27.519Z,8.93
2023-03-13T07:24:29.312Z,7.35
2023-03-13T07:29:31.008Z,8.20
2023-03-13T07:34:32.707Z,8.60
2023-03-13T07:39:34.365Z,7.60
2023-03-13T07:44:36.141Z,8.40
2023-03-13T07:49:43.993Z,5.25
2023-03-13T07:54:46.801Z,9.38
2023-03-13T07:59:48.546Z,10.57
2023-03-13T08:04:53.880Z,5.78
2023-03-13T08:09:55.662Z,7.55
2023-03-13T08:14:57.759Z,6.97
2023-03-13T08:19:59.418Z,8.32
2023-03-13T08:25:01.076Z,6.30
2023-03-13T08:30:02.772Z,6.07
2023-03-13T08:35:05.255Z,4.20
2023-03-13T08:40:11.434Z,4.80
2023-03-13T08:45:15.630Z,3.83
2023-03-13T08:50:17.319Z,8.57
2023-03-13T08:55:19.013Z,4.85
2023-03-13T09:00:20.902Z,5.20
2023-03-13T09:05:22.522Z,4.65
2023-03-13T09:10:24.185Z,4.60
2023-03-13T09:15:25.962Z,3.60
2023-03-13T09:20:27.618Z,3.60
2023-03-13T09:25:29.549Z,2.63
2023-03-13T09:30:31.224Z,1.90
2023-03-13T09:35:32.873Z,3.65
2023-03-13T09:40:56.515Z,2.08
2023-03-13T09:46:12.012Z,2.97
2023-03-13T09:51:21.415Z,3.45
2023-03-13T09:56:26.437Z,5.60
2023-03-13T10:01:34.520Z,1.40
2023-03-13T10:06:43.852Z,2.03
2023-03-13T10:11:53.660Z,1.23
2023-03-13T10:17:05.248Z,2.00
2023-03-13T10:22:16.200Z,1.45
2023-03-13T10:27:18.139Z,2.10
2023-03-13T10:32:20.840Z,1.67
2023-03-13T10:37:29.401Z,1.20
2023-03-13T10:42:39.994Z,1.50
2023-03-13T10:47:41.696Z,0.98
2023-03-13T10:52:46.414Z,0.98
2023-03-13T10:58:03.537Z,1.10
2023-03-13T11:03:31.685Z,2.85
2023-03-13T11:08:37.359Z,1.70
2023-03-13T11:13:43.972Z,5.78
2023-03-13T11:19:01.301Z,3.40
2023-03-13T11:24:15.428Z,0.90
2023-03-13T11:29:52.620Z,1.23
2023-03-13T11:34:59.531Z,0.85
2023-03-13T11:40:16.962Z,0.52
2023-03-13T11:45:28.448Z,1.27
2023-03-13T11:50:52.451Z,0.80
2023-03-13T11:56:17.866Z,1.98
2023-03-13T12:01:24.466Z,0.63
2023-03-13T12:06:28.722Z,1.95
2023-03-13T12:11:45.208Z,1.08
2023-03-13T12:16:55.042Z,2.10
2023-03-13T12:21:58.727Z,0.60
2023-03-13T12:27:08.475Z,1.02
2023-03-13T12:32:19.697Z,1.75
2023-03-13T12:37:46.439Z,1.10
2023-03-13T12:43:06.104Z,1.02
2023-03-13T12:48:29.821Z,0.68
2023-03-13T12:54:03.492Z,2.22
2023-03-13T12:59:18.142Z,0.60
2023-03-13T13:04:23.698Z,0.50
2023-03-13T13:09:31.397Z,1.40
2023-03-13T13:14:48.328Z,0.88
2023-03-13T13:19:50.452Z,0.95
2023-03-13T13:25:03.020Z,0.65
2023-03-13T13:30:27.832Z,1.88
2023-03-13T13:35:29.781Z,1.80
2023-03-13T13:40:32.235Z,0.95
2023-03-13T13:45:38.721Z,3.25
2023-03-13T13:51:11.003Z,3.50
2023-03-13T13:56:42.804Z,0.95
2023-03-13T14:01:45.289Z,1.10
2023-03-13T14:06:52.206Z,1.77
2023-03-13T14:11:54.181Z,0.93
2023-03-13T14:16:57.277Z,1.25
2023-03-13T14:22:10.546Z,1.42
2023-03-13T14:27:19.649Z,1.58
2023-03-13T14:32:26.557Z,2.15
2023-03-13T14:37:52.332Z,1.33
2023-03-13T14:43:02.274Z,1.23
2023-03-13T14:48:19.517Z,0.95
2023-03-13T14:53:22.845Z,0.93
2023-03-13T14:58:30.555Z,2.17
2023-03-13T15:03:33.490Z,0.85
2023-03-13T15:09:10.640Z,1.08
2023-03-13T15:14:34.320Z,1.65
2023-03-13T15:19:36.275Z,1.63
2023-03-13T15:24:37.999Z,0.80
2023-03-13T15:29:39.746Z,1.25
2023-03-13T15:34:41.387Z,1.05
2023-03-13T15:39:43.048Z,1.05
2023-03-13T15:44:44.746Z,0.57
2023-03-13T15:49:46.566Z,0.95
2023-03-13T15:54:49.563Z,0.90
2023-03-13T15:59:52.689Z,1.73
2023-03-13T16:04:55.962Z,1.17
2023-03-13T16:09:57.614Z,2.25
2023-03-13T16:14:59.395Z,1.48
2023-03-13T16:20:01.084Z,0.50
2023-03-13T16:25:02.915Z,0.60
2023-03-13T16:30:12.255Z,1.77
2023-03-13T16:35:16.512Z,2.67
2023-03-13T16:40:22.611Z,1.40
2023-03-13T16:45:25.032Z,2.40
2023-03-13T16:50:32.128Z,0.70
2023-03-13T16:55:36.790Z,1.95
2023-03-13T17:00:38.807Z,1.00
2023-03-13T17:05:40.586Z,1.30
2023-03-13T17:10:42.286Z,2.83
2023-03-13T17:15:44.145Z,4.72
2023-03-13T17:20:46.817Z,2.50
2023-03-13T17:25:48.575Z,2.63
2023-03-13T17:30:50.292Z,2.30
2023-03-13T17:35:52.044Z,1.92
2023-03-13T17:40:54.359Z,6.95
2023-03-13T17:45:56.671Z,1.90
2023-03-13T17:50:58.599Z,1.65
2023-03-13T17:56:00.269Z,1.50
2023-03-13T18:01:01.910Z,2.03
2023-03-13T18:06:04.116Z,2.85
2023-03-13T18:11:05.973Z,2.30
2023-03-13T18:16:18.169Z,1.08
2023-03-13T18:21:22.114Z,2.97
2023-03-13T18:26:33.666Z,1.75
2023-03-13T18:31:36.431Z,1.73
2023-03-13T18:36:38.529Z,2.80
2023-03-13T18:41:40.459Z,2.38
2023-03-13T18:46:43.928Z,1.90
2023-03-13T18:51:49.286Z,1.80
2023-03-13T18:56:51.223Z,2.47
2023-03-13T19:01:56.113Z,2.10
2023-03-13T19:06:59.928Z,2.73
2023-03-13T19:12:01.766Z,2.22
2023-03-13T19:17:07.122Z,2.90
2023-03-13T19:22:13.596Z,1.77
2023-03-13T19:27:16.882Z,3.28
2023-03-13T19:32:18.996Z,2.90
2023-03-13T19:37:20.951Z,3.13
2023-03-13T19:42:22.723Z,3.75
2023-03-13T19:47:24.381Z,2.15
2023-03-13T19:52:26.069Z,2.28
2023-03-13T19:57:27.860Z,2.33
2023-03-13T20:02:29.630Z,2.15
2023-03-13T20:07:32.568Z,2.50
2023-03-13T20:12:39.360Z,1.90
2023-03-13T20:17:41.095Z,2.17
2023-03-13T20:22:42.779Z,1.63
2023-03-13T20:27:44.450Z,1.25
2023-03-13T20:32:58.771Z,2.25
2023-03-13T20:38:01.909Z,1.23
2023-03-13T20:43:03.686Z,1.55
2023-03-13T20:48:05.662Z,0.75
2023-03-13T20:53:07.616Z,0.95
2023-03-13T20:58:09.317Z,1.85
2023-03-13T21:03:11.760Z,0.80
2023-03-13T21:08:13.533Z,1.77
2023-03-13T21:13:15.285Z,1.70
2023-03-13T21:18:16.941Z,1.40
2023-03-13T21:23:25.329Z,1.45
2023-03-13T21:28:28.159Z,0.75
2023-03-13T21:33:29.941Z,2.72
2023-03-13T21:38:31.724Z,1.50
2023-03-13T21:43:33.483Z,1.45
2023-03-13T21:48:35.133Z,0.70
2023-03-13T21:53:38.087Z,1.13
2023-03-13T21:58:40.010Z,1.35
2023-03-13T22:03:42.253Z,1.52
2023-03-13T22:08:43.988Z,1.08
2023-03-13T22:13:45.805Z,0.80
2023-03-13T22:18:47.486Z,0.73
2023-03-13T22:23:49.241Z,1.05
2023-03-13T22:28:51.230Z,3.15
2023-03-13T22:33:52.855Z,1.42
2023-03-13T22:38:54.540Z,1.05
2023-03-13T22:43:56.172Z,0.88
2023-03-13T22:48:57.949Z,1.00
2023-03-13T22:53:59.685Z,0.82
2023-03-13T22:59:03.013Z,0.50
2023-03-13T23:04:04.789Z,0.70
2023-03-13T23:09:07.392Z,0.90
2023-03-13T23:14:09.110Z,1.48
2023-03-13T23:19:11.032Z,1.05
2023-03-13T23:24:12.843Z,1.50
2023-03-13T23:29:14.586Z,1.95
2023-03-13T23:34:21.826Z,2.38
2023-03-13T23:39:24.011Z,0.88
2023-03-13T23:44:25.773Z,1.25
2023-03-13T23:49:27.451Z,0.68
2023-03-13T23:54:29.173Z,0.65
2023-03-13T23:59:30.948Z,0.80
